sensor_id;sensor_type;location;lat;lon;timestamp;temperature;humidity
3628;DHT22;1830;49.000;12.074;2023-10-31T00:02:12;11.70;99.90
3628;DHT22;1830;49.000;12.074;2023-10-31T00:04:39;11.70;99.90
3628;DHT22;1830;49.000;12.074;2023-10-31T00:07:06;11.60;99.90
3628;DHT22;1830;49.000;12.074;2023-10-31T00:09:34;11.60;99.90
3628;DHT22;1830;49.000;12.074;2023-10-31T00:12:01;11.60;99.90
3628;DHT22;1830;49.000;12.074;2023-10-31T00:14:27;11.60;99.90
3628;DHT22;1830;49.000;12.074;2023-10-31T00:16:54;11.60;99.90
3628;DHT22;1830;49.000;12.074;2023-10-31T00:19:21;11.60;99.90
3628;DHT22;1830;49.000;12.074;2023-10-31T00:21:48;11.60;99.90
3628;DHT22;1830;49.000;12.074;2023-10-31T00:24:15;11.50;99.90
3628;DHT22;1830;49.000;12.074;2023-10-31T00:26:44;11.50;99.90
3628;DHT22;1830;49.000;12.074;2023-10-31T00:29:11;11.50;99.90
3628;DHT22;1830;49.000;12.074;2023-10-31T00:31:37;11.50;99.90
3628;DHT22;1830;49.000;12.074;2023-10-31T00:34:06;11.50;99.90
3628;DHT22;1830;49.000;12.074;2023-10-31T00:36:33;11.50;99.90
3628;DHT22;1830;49.000;12.074;2023-10-31T00:39:00;11.50;99.90
3628;DHT22;1830;49.000;12.074;2023-10-31T00:41:27;11.50;99.90
3628;DHT22;1830;49.000;12.074;2023-10-31T00:43:55;11.50;99.90
3628;DHT22;1830;49.000;12.074;2023-10-31T00:46:22;11.50;99.90
3628;DHT22;1830;49.000;12.074;2023-10-31T00:48:48;11.40;99.90
3628;DHT22;1830;49.000;12.074;2023-10-31T00:51:15;11.50;99.90
3628;DHT22;1830;49.000;12.074;2023-10-31T00:53:42;11.50;99.90
3628;DHT22;1830;49.000;12.074;2023-10-31T00:56:09;11.50;99.90
3628;DHT22;1830;49.000;12.074;2023-10-31T00:58:36;11.40;99.90
3628;DHT22;1830;49.000;12.074;2023-10-31T01:01:04;11.50;99.90
3628;DHT22;1830;49.000;12.074;2023-10-31T01:03:31;11.50;99.90
3628;DHT22;1830;49.000;12.074;2023-10-31T01:05:58;11.40;99.90
3628;DHT22;1830;49.000;12.074;2023-10-31T01:08:24;11.40;99.90
3628;DHT22;1830;49.000;12.074;2023-10-31T01:10:52;11.40;99.90
3628;DHT22;1830;49.000;12.074;2023-10-31T01:13:18;11.40;99.90
3628;DHT22;1830;49.000;12.074;2023-10-31T01:15:45;11.40;99.90
3628;DHT22;1830;49.000;12.074;2023-10-31T01:18:13;11.30;99.90
3628;DHT22;1830;49.000;12.074;2023-10-31T01:20:40;11.40;99.90
3628;DHT22;1830;49.000;12.074;2023-10-31T01:23:07;11.40;99.90
3628;DHT22;1830;49.000;12.074;2023-10-31T01:25:34;11.40;99.90
3628;DHT22;1830;49.000;12.074;2023-10-31T01:28:00;11.50;99.90
3628;DHT22;1830;49.000;12.074;2023-10-31T01:30:27;11.50;99.90
3628;DHT22;1830;49.000;12.074;2023-10-31T01:32:54;11.40;99.90
3628;DHT22;1830;49.000;12.074;2023-10-31T01:35:22;11.40;99.90
3628;DHT22;1830;49.000;12.074;2023-10-31T01:37:49;11.40;99.90
3628;DHT22;1830;49.000;12.074;2023-10-31T01:40:16;11.30;99.90
3628;DHT22;1830;49.000;12.074;2023-10-31T01:42:43;11.40;99.90
3628;DHT22;1830;49.000;12.074;2023-10-31T01:45:10;11.40;99.90
3628;DHT22;1830;49.000;12.074;2023-10-31T01:47:37;11.40;99.90
3628;DHT22;1830;49.000;12.074;2023-10-31T01:50:06;11.30;99.90
3628;DHT22;1830;49.000;12.074;2023-10-31T01:52:36;11.40;99.90
3628;DHT22;1830;49.000;12.074;2023-10-31T01:55:04;11.30;99.90
3628;DHT22;1830;49.000;12.074;2023-10-31T01:57:32;11.30;99.90
3628;DHT22;1830;49.000;12.074;2023-10-31T01:59:59;11.30;99.90
3628;DHT22;1830;49.000;12.074;2023-10-31T02:02:27;11.30;99.90
3628;DHT22;1830;49.000;12.074;2023-10-31T02:04:55;11.30;99.90
3628;DHT22;1830;49.000;12.074;2023-10-31T02:07:22;11.30;99.90
3628;DHT22;1830;49.000;12.074;2023-10-31T02:09:50;11.30;99.90
3628;DHT22;1830;49.000;12.074;2023-10-31T02:12:33;11.30;99.90
3628;DHT22;1830;49.000;12.074;2023-10-31T02:15:00;11.30;99.90
3628;DHT22;1830;49.000;12.074;2023-10-31T02:17:27;11.30;99.90
3628;DHT22;1830;49.000;12.074;2023-10-31T02:19:54;11.30;99.90
3628;DHT22;1830;49.000;12.074;2023-10-31T02:22:22;11.20;99.90
3628;DHT22;1830;49.000;12.074;2023-10-31T02:24:49;11.30;99.90
3628;DHT22;1830;49.000;12.074;2023-10-31T02:27:16;11.30;99.90
3628;DHT22;1830;49.000;12.074;2023-10-31T02:29:42;11.30;99.90
3628;DHT22;1830;49.000;12.074;2023-10-31T02:32:09;11.30;99.90
3628;DHT22;1830;49.000;12.074;2023-10-31T02:34:36;11.30;99.90
3628;DHT22;1830;49.000;12.074;2023-10-31T02:37:03;11.20;99.90
3628;DHT22;1830;49.000;12.074;2023-10-31T02:39:32;11.20;99.90
3628;DHT22;1830;49.000;12.074;2023-10-31T02:41:59;11.30;99.90
3628;DHT22;1830;49.000;12.074;2023-10-31T02:44:26;11.30;99.90
3628;DHT22;1830;49.000;12.074;2023-10-31T02:46:53;11.30;99.90
3628;DHT22;1830;49.000;12.074;2023-10-31T02:49:20;11.30;99.90
3628;DHT22;1830;49.000;12.074;2023-10-31T02:51:47;11.20;99.90
3628;DHT22;1830;49.000;12.074;2023-10-31T02:54:13;11.10;99.90
3628;DHT22;1830;49.000;12.074;2023-10-31T02:56:42;11.10;99.90
3628;DHT22;1830;49.000;12.074;2023-10-31T02:59:08;11.20;99.90
3628;DHT22;1830;49.000;12.074;2023-10-31T03:01:35;11.20;99.90
3628;DHT22;1830;49.000;12.074;2023-10-31T03:04:03;11.20;99.90
3628;DHT22;1830;49.000;12.074;2023-10-31T03:06:30;11.00;99.90
3628;DHT22;1830;49.000;12.074;2023-10-31T03:08:56;11.10;99.90
3628;DHT22;1830;49.000;12.074;2023-10-31T03:11:24;11.10;99.90
3628;DHT22;1830;49.000;12.074;2023-10-31T03:13:52;11.00;99.90
3628;DHT22;1830;49.000;12.074;2023-10-31T03:16:19;11.10;99.90
3628;DHT22;1830;49.000;12.074;2023-10-31T03:18:46;11.10;99.90
3628;DHT22;1830;49.000;12.074;2023-10-31T03:21:13;11.00;99.90
3628;DHT22;1830;49.000;12.074;2023-10-31T03:23:41;11.10;99.90
3628;DHT22;1830;49.000;12.074;2023-10-31T03:26:08;11.00;99.90
3628;DHT22;1830;49.000;12.074;2023-10-31T03:28:35;11.10;99.90
3628;DHT22;1830;49.000;12.074;2023-10-31T03:31:03;11.00;99.90
3628;DHT22;1830;49.000;12.074;2023-10-31T03:33:30;10.90;99.90
3628;DHT22;1830;49.000;12.074;2023-10-31T03:35:57;10.80;99.90
3628;DHT22;1830;49.000;12.074;2023-10-31T03:38:24;10.80;99.90
3628;DHT22;1830;49.000;12.074;2023-10-31T03:40:51;10.90;99.90
3628;DHT22;1830;49.000;12.074;2023-10-31T03:43:18;10.90;99.90
3628;DHT22;1830;49.000;12.074;2023-10-31T03:45:45;10.80;99.90
3628;DHT22;1830;49.000;12.074;2023-10-31T03:48:15;10.80;99.90
3628;DHT22;1830;49.000;12.074;2023-10-31T03:50:43;10.80;99.90
3628;DHT22;1830;49.000;12.074;2023-10-31T03:53:10;10.80;99.90
3628;DHT22;1830;49.000;12.074;2023-10-31T03:55:37;10.90;99.90
3628;DHT22;1830;49.000;12.074;2023-10-31T03:58:04;10.90;99.90
3628;DHT22;1830;49.000;12.074;2023-10-31T04:00:31;10.80;99.90
3628;DHT22;1830;49.000;12.074;2023-10-31T04:02:58;10.80;99.90
3628;DHT22;1830;49.000;12.074;2023-10-31T04:05:27;10.80;99.90
3628;DHT22;1830;49.000;12.074;2023-10-31T04:07:53;10.70;99.90
3628;DHT22;1830;49.000;12.074;2023-10-31T04:10:20;10.80;99.90
3628;DHT22;1830;49.000;12.074;2023-10-31T04:12:48;10.80;99.90
3628;DHT22;1830;49.000;12.074;2023-10-31T04:15:14;10.80;99.90
3628;DHT22;1830;49.000;12.074;2023-10-31T04:17:41;10.70;99.90
3628;DHT22;1830;49.000;12.074;2023-10-31T04:20:08;10.70;99.90
3628;DHT22;1830;49.000;12.074;2023-10-31T04:22:37;10.60;99.90
3628;DHT22;1830;49.000;12.074;2023-10-31T04:25:04;10.60;99.90
3628;DHT22;1830;49.000;12.074;2023-10-31T04:27:31;10.70;99.90
3628;DHT22;1830;49.000;12.074;2023-10-31T04:29:58;10.70;99.90
3628;DHT22;1830;49.000;12.074;2023-10-31T04:32:25;10.70;99.90
3628;DHT22;1830;49.000;12.074;2023-10-31T04:34:51;10.70;99.90
3628;DHT22;1830;49.000;12.074;2023-10-31T04:37:18;10.70;99.90
3628;DHT22;1830;49.000;12.074;2023-10-31T04:39:46;10.70;99.90
3628;DHT22;1830;49.000;12.074;2023-10-31T04:42:13;10.60;99.90
3628;DHT22;1830;49.000;12.074;2023-10-31T04:44:40;10.60;99.90
3628;DHT22;1830;49.000;12.074;2023-10-31T04:47:07;10.50;99.90
3628;DHT22;1830;49.000;12.074;2023-10-31T04:49:34;10.60;99.90
3628;DHT22;1830;49.000;12.074;2023-10-31T04:52:02;10.60;99.90
3628;DHT22;1830;49.000;12.074;2023-10-31T04:54:30;10.50;99.90
3628;DHT22;1830;49.000;12.074;2023-10-31T04:56:58;10.50;99.90
3628;DHT22;1830;49.000;12.074;2023-10-31T04:59:25;10.40;99.90
3628;DHT22;1830;49.000;12.074;2023-10-31T05:01:52;10.50;99.90
3628;DHT22;1830;49.000;12.074;2023-10-31T05:04:20;10.50;99.90
3628;DHT22;1830;49.000;12.074;2023-10-31T05:06:47;10.40;99.90
3628;DHT22;1830;49.000;12.074;2023-10-31T05:09:14;10.30;99.90
3628;DHT22;1830;49.000;12.074;2023-10-31T05:11:41;10.30;99.90
3628;DHT22;1830;49.000;12.074;2023-10-31T05:14:10;10.30;99.90
3628;DHT22;1830;49.000;12.074;2023-10-31T05:16:41;10.30;99.90
3628;DHT22;1830;49.000;12.074;2023-10-31T05:19:08;10.40;99.90
3628;DHT22;1830;49.000;12.074;2023-10-31T05:21:37;10.40;99.90
3628;DHT22;1830;49.000;12.074;2023-10-31T05:24:05;10.30;99.90
3628;DHT22;1830;49.000;12.074;2023-10-31T05:26:33;10.30;99.90
3628;DHT22;1830;49.000;12.074;2023-10-31T05:29:01;10.30;99.90
3628;DHT22;1830;49.000;12.074;2023-10-31T05:31:30;10.30;99.90
3628;DHT22;1830;49.000;12.074;2023-10-31T05:33:58;10.30;99.90
3628;DHT22;1830;49.000;12.074;2023-10-31T05:36:25;10.40;99.90
3628;DHT22;1830;49.000;12.074;2023-10-31T05:38:53;10.30;99.90
3628;DHT22;1830;49.000;12.074;2023-10-31T05:41:20;10.30;99.90
3628;DHT22;1830;49.000;12.074;2023-10-31T05:43:47;10.20;99.90
3628;DHT22;1830;49.000;12.074;2023-10-31T05:46:13;10.20;99.90
3628;DHT22;1830;49.000;12.074;2023-10-31T05:48:44;10.20;99.90
3628;DHT22;1830;49.000;12.074;2023-10-31T05:51:12;10.20;99.90
3628;DHT22;1830;49.000;12.074;2023-10-31T05:53:40;10.20;99.90
3628;DHT22;1830;49.000;12.074;2023-10-31T05:56:08;10.20;99.90
3628;DHT22;1830;49.000;12.074;2023-10-31T05:58:36;10.20;99.90
3628;DHT22;1830;49.000;12.074;2023-10-31T06:01:03;10.10;99.90
3628;DHT22;1830;49.000;12.074;2023-10-31T06:03:30;10.10;99.90
3628;DHT22;1830;49.000;12.074;2023-10-31T06:05:59;10.10;99.90
3628;DHT22;1830;49.000;12.074;2023-10-31T06:08:25;10.10;99.90
3628;DHT22;1830;49.000;12.074;2023-10-31T06:10:54;10.10;99.90
3628;DHT22;1830;49.000;12.074;2023-10-31T06:13:21;10.10;99.90
3628;DHT22;1830;49.000;12.074;2023-10-31T06:15:48;10.10;99.90
3628;DHT22;1830;49.000;12.074;2023-10-31T06:18:15;10.40;99.90
3628;DHT22;1830;49.000;12.074;2023-10-31T06:20:42;10.30;99.90
3628;DHT22;1830;49.000;12.074;2023-10-31T06:23:10;10.30;99.90
3628;DHT22;1830;49.000;12.074;2023-10-31T06:25:37;10.10;99.90
3628;DHT22;1830;49.000;12.074;2023-10-31T06:28:04;10.00;99.90
3628;DHT22;1830;49.000;12.074;2023-10-31T06:30:30;10.00;99.90
3628;DHT22;1830;49.000;12.074;2023-10-31T06:32:58;10.10;99.90
3628;DHT22;1830;49.000;12.074;2023-10-31T06:35:25;10.00;99.90
3628;DHT22;1830;49.000;12.074;2023-10-31T06:37:55;10.10;99.90
3628;DHT22;1830;49.000;12.074;2023-10-31T06:40:24;10.10;99.90
3628;DHT22;1830;49.000;12.074;2023-10-31T06:42:51;10.00;99.90
3628;DHT22;1830;49.000;12.074;2023-10-31T06:45:17;10.00;99.90
3628;DHT22;1830;49.000;12.074;2023-10-31T06:47:44;10.00;99.90
3628;DHT22;1830;49.000;12.074;2023-10-31T06:50:11;10.00;99.90
3628;DHT22;1830;49.000;12.074;2023-10-31T06:52:38;10.00;99.90
3628;DHT22;1830;49.000;12.074;2023-10-31T06:55:05;10.10;99.90
3628;DHT22;1830;49.000;12.074;2023-10-31T06:57:33;10.10;99.90
3628;DHT22;1830;49.000;12.074;2023-10-31T07:00:00;10.10;99.90
3628;DHT22;1830;49.000;12.074;2023-10-31T07:02:28;10.10;99.90
3628;DHT22;1830;49.000;12.074;2023-10-31T07:04:55;10.20;99.90
3628;DHT22;1830;49.000;12.074;2023-10-31T07:07:22;10.10;99.90
3628;DHT22;1830;49.000;12.074;2023-10-31T07:09:49;10.20;99.90
3628;DHT22;1830;49.000;12.074;2023-10-31T07:12:15;10.20;99.90
3628;DHT22;1830;49.000;12.074;2023-10-31T07:14:43;10.30;99.90
3628;DHT22;1830;49.000;12.074;2023-10-31T07:17:10;10.20;99.90
3628;DHT22;1830;49.000;12.074;2023-10-31T07:19:37;10.20;99.90
3628;DHT22;1830;49.000;12.074;2023-10-31T07:22:04;10.30;99.90
3628;DHT22;1830;49.000;12.074;2023-10-31T07:24:31;10.30;99.90
3628;DHT22;1830;49.000;12.074;2023-10-31T07:26:57;10.30;99.90
3628;DHT22;1830;49.000;12.074;2023-10-31T07:29:24;10.40;99.90
3628;DHT22;1830;49.000;12.074;2023-10-31T07:31:52;10.40;99.90
3628;DHT22;1830;49.000;12.074;2023-10-31T07:34:19;10.50;99.90
3628;DHT22;1830;49.000;12.074;2023-10-31T07:36:46;10.50;99.90
3628;DHT22;1830;49.000;12.074;2023-10-31T07:39:13;10.50;99.90
3628;DHT22;1830;49.000;12.074;2023-10-31T07:41:40;10.60;99.90
3628;DHT22;1830;49.000;12.074;2023-10-31T07:44:07;10.50;99.90
3628;DHT22;1830;49.000;12.074;2023-10-31T07:46:34;10.50;99.90
3628;DHT22;1830;49.000;12.074;2023-10-31T07:49:02;10.60;99.90
3628;DHT22;1830;49.000;12.074;2023-10-31T07:51:28;10.50;99.90
3628;DHT22;1830;49.000;12.074;2023-10-31T07:53:55;10.60;99.90
3628;DHT22;1830;49.000;12.074;2023-10-31T07:56:23;10.70;99.90
3628;DHT22;1830;49.000;12.074;2023-10-31T07:58:51;10.60;99.90
3628;DHT22;1830;49.000;12.074;2023-10-31T08:01:18;10.60;99.90
3628;DHT22;1830;49.000;12.074;2023-10-31T08:03:45;10.70;99.90
3628;DHT22;1830;49.000;12.074;2023-10-31T08:06:14;10.70;99.90
3628;DHT22;1830;49.000;12.074;2023-10-31T08:08:41;10.70;99.90
3628;DHT22;1830;49.000;12.074;2023-10-31T08:11:08;10.70;99.90
3628;DHT22;1830;49.000;12.074;2023-10-31T08:13:36;10.70;99.90
3628;DHT22;1830;49.000;12.074;2023-10-31T08:16:04;10.70;99.90
3628;DHT22;1830;49.000;12.074;2023-10-31T08:18:31;10.70;99.90
3628;DHT22;1830;49.000;12.074;2023-10-31T08:20:58;10.70;99.90
3628;DHT22;1830;49.000;12.074;2023-10-31T08:23:27;10.80;99.90
3628;DHT22;1830;49.000;12.074;2023-10-31T08:25:54;10.80;99.90
3628;DHT22;1830;49.000;12.074;2023-10-31T08:28:21;10.80;99.90
3628;DHT22;1830;49.000;12.074;2023-10-31T08:30:48;10.80;99.90
3628;DHT22;1830;49.000;12.074;2023-10-31T08:33:15;10.80;99.90
3628;DHT22;1830;49.000;12.074;2023-10-31T08:35:41;10.70;99.90
3628;DHT22;1830;49.000;12.074;2023-10-31T08:38:09;10.70;99.90
3628;DHT22;1830;49.000;12.074;2023-10-31T08:40:37;10.70;99.90
3628;DHT22;1830;49.000;12.074;2023-10-31T08:43:04;10.70;99.90
3628;DHT22;1830;49.000;12.074;2023-10-31T08:45:32;10.80;99.90
3628;DHT22;1830;49.000;12.074;2023-10-31T08:47:59;10.70;99.90
3628;DHT22;1830;49.000;12.074;2023-10-31T08:50:26;10.70;99.90
3628;DHT22;1830;49.000;12.074;2023-10-31T08:52:53;10.80;99.90
3628;DHT22;1830;49.000;12.074;2023-10-31T08:55:20;10.80;99.90
3628;DHT22;1830;49.000;12.074;2023-10-31T08:57:48;10.80;99.90
3628;DHT22;1830;49.000;12.074;2023-10-31T09:00:16;10.80;99.90
3628;DHT22;1830;49.000;12.074;2023-10-31T09:02:43;10.80;99.90
3628;DHT22;1830;49.000;12.074;2023-10-31T09:05:10;10.80;99.90
3628;DHT22;1830;49.000;12.074;2023-10-31T09:07:36;10.80;99.90
3628;DHT22;1830;49.000;12.074;2023-10-31T09:10:04;10.80;99.90
3628;DHT22;1830;49.000;12.074;2023-10-31T09:12:31;10.80;99.90
3628;DHT22;1830;49.000;12.074;2023-10-31T09:15:00;10.70;99.90
3628;DHT22;1830;49.000;12.074;2023-10-31T09:17:26;10.70;99.90
3628;DHT22;1830;49.000;12.074;2023-10-31T09:19:53;10.80;99.90
3628;DHT22;1830;49.000;12.074;2023-10-31T09:22:20;10.80;99.90
3628;DHT22;1830;49.000;12.074;2023-10-31T09:24:47;10.80;99.90
3628;DHT22;1830;49.000;12.074;2023-10-31T09:27:14;10.80;99.90
3628;DHT22;1830;49.000;12.074;2023-10-31T09:29:41;10.80;99.90
3628;DHT22;1830;49.000;12.074;2023-10-31T09:32:09;10.80;99.90
3628;DHT22;1830;49.000;12.074;2023-10-31T09:34:36;10.80;99.90
3628;DHT22;1830;49.000;12.074;2023-10-31T09:37:03;10.80;99.90
3628;DHT22;1830;49.000;12.074;2023-10-31T09:39:30;10.90;99.90
3628;DHT22;1830;49.000;12.074;2023-10-31T09:41:57;10.90;99.90
3628;DHT22;1830;49.000;12.074;2023-10-31T09:44:23;10.90;99.90
3628;DHT22;1830;49.000;12.074;2023-10-31T09:46:52;10.80;99.90
3628;DHT22;1830;49.000;12.074;2023-10-31T09:49:20;10.80;99.90
3628;DHT22;1830;49.000;12.074;2023-10-31T09:51:47;10.80;99.90
3628;DHT22;1830;49.000;12.074;2023-10-31T09:54:16;10.80;99.90
3628;DHT22;1830;49.000;12.074;2023-10-31T09:56:43;10.90;99.90
3628;DHT22;1830;49.000;12.074;2023-10-31T09:59:10;10.80;99.90
3628;DHT22;1830;49.000;12.074;2023-10-31T10:01:37;10.90;99.90
3628;DHT22;1830;49.000;12.074;2023-10-31T10:04:05;10.90;99.90
3628;DHT22;1830;49.000;12.074;2023-10-31T10:06:33;10.80;99.90
3628;DHT22;1830;49.000;12.074;2023-10-31T10:09:00;10.90;99.90
3628;DHT22;1830;49.000;12.074;2023-10-31T10:11:32;10.90;99.90
3628;DHT22;1830;49.000;12.074;2023-10-31T10:13:59;10.90;99.90
3628;DHT22;1830;49.000;12.074;2023-10-31T10:16:30;10.90;99.90
3628;DHT22;1830;49.000;12.074;2023-10-31T10:18:57;10.90;99.90
3628;DHT22;1830;49.000;12.074;2023-10-31T10:21:24;10.90;99.90
3628;DHT22;1830;49.000;12.074;2023-10-31T10:23:53;11.00;99.90
3628;DHT22;1830;49.000;12.074;2023-10-31T10:26:19;11.00;99.90
3628;DHT22;1830;49.000;12.074;2023-10-31T10:28:52;11.00;99.90
3628;DHT22;1830;49.000;12.074;2023-10-31T10:31:20;11.10;99.90
3628;DHT22;1830;49.000;12.074;2023-10-31T10:33:46;11.00;99.90
3628;DHT22;1830;49.000;12.074;2023-10-31T10:36:13;10.90;99.90
3628;DHT22;1830;49.000;12.074;2023-10-31T10:38:43;10.90;99.90
3628;DHT22;1830;49.000;12.074;2023-10-31T10:41:14;10.90;99.90
3628;DHT22;1830;49.000;12.074;2023-10-31T10:43:44;10.90;99.90
3628;DHT22;1830;49.000;12.074;2023-10-31T10:46:15;10.90;99.90
3628;DHT22;1830;49.000;12.074;2023-10-31T10:48:46;10.80;99.90
3628;DHT22;1830;49.000;12.074;2023-10-31T10:51:21;10.80;99.90
3628;DHT22;1830;49.000;12.074;2023-10-31T10:53:49;10.60;99.90
3628;DHT22;1830;49.000;12.074;2023-10-31T10:56:25;10.70;99.90
3628;DHT22;1830;49.000;12.074;2023-10-31T10:58:58;10.70;99.90
3628;DHT22;1830;49.000;12.074;2023-10-31T11:01:27;10.70;99.90
3628;DHT22;1830;49.000;12.074;2023-10-31T11:03:55;10.70;99.90
3628;DHT22;1830;49.000;12.074;2023-10-31T11:06:22;10.80;99.90
3628;DHT22;1830;49.000;12.074;2023-10-31T11:08:49;10.90;99.90
3628;DHT22;1830;49.000;12.074;2023-10-31T11:11:20;10.90;99.90
3628;DHT22;1830;49.000;12.074;2023-10-31T11:13:47;11.00;99.90
3628;DHT22;1830;49.000;12.074;2023-10-31T11:16:20;10.90;99.90
3628;DHT22;1830;49.000;12.074;2023-10-31T11:18:50;10.90;99.90
3628;DHT22;1830;49.000;12.074;2023-10-31T11:21:17;10.90;99.90
3628;DHT22;1830;49.000;12.074;2023-10-31T11:23:44;11.00;99.90
3628;DHT22;1830;49.000;12.074;2023-10-31T11:26:11;10.90;99.90
3628;DHT22;1830;49.000;12.074;2023-10-31T11:28:39;11.00;99.90
3628;DHT22;1830;49.000;12.074;2023-10-31T11:31:08;10.90;99.90
3628;DHT22;1830;49.000;12.074;2023-10-31T11:33:39;11.00;99.90
3628;DHT22;1830;49.000;12.074;2023-10-31T11:36:08;10.80;99.90
3628;DHT22;1830;49.000;12.074;2023-10-31T11:38:37;10.80;99.90
3628;DHT22;1830;49.000;12.074;2023-10-31T11:41:05;10.80;99.90
3628;DHT22;1830;49.000;12.074;2023-10-31T11:43:54;10.80;99.90
3628;DHT22;1830;49.000;12.074;2023-10-31T11:46:22;10.70;99.90
3628;DHT22;1830;49.000;12.074;2023-10-31T11:48:51;10.70;99.90
3628;DHT22;1830;49.000;12.074;2023-10-31T11:51:18;10.70;99.90
3628;DHT22;1830;49.000;12.074;2023-10-31T11:53:45;10.70;99.90
3628;DHT22;1830;49.000;12.074;2023-10-31T11:56:12;10.70;99.90
3628;DHT22;1830;49.000;12.074;2023-10-31T11:58:39;10.60;99.90
3628;DHT22;1830;49.000;12.074;2023-10-31T12:01:08;10.70;99.90
3628;DHT22;1830;49.000;12.074;2023-10-31T12:03:39;10.80;99.90
3628;DHT22;1830;49.000;12.074;2023-10-31T12:06:07;10.70;99.90
3628;DHT22;1830;49.000;12.074;2023-10-31T12:08:37;10.70;99.90
3628;DHT22;1830;49.000;12.074;2023-10-31T12:11:08;10.60;99.90
3628;DHT22;1830;49.000;12.074;2023-10-31T12:13:36;10.70;99.90
3628;DHT22;1830;49.000;12.074;2023-10-31T12:16:04;10.60;99.90
3628;DHT22;1830;49.000;12.074;2023-10-31T12:18:33;10.60;99.90
3628;DHT22;1830;49.000;12.074;2023-10-31T12:21:00;10.60;99.90
3628;DHT22;1830;49.000;12.074;2023-10-31T12:23:27;10.60;99.90
3628;DHT22;1830;49.000;12.074;2023-10-31T12:25:54;10.70;99.90
3628;DHT22;1830;49.000;12.074;2023-10-31T12:28:23;10.60;99.90
3628;DHT22;1830;49.000;12.074;2023-10-31T12:30:51;10.60;99.90
3628;DHT22;1830;49.000;12.074;2023-10-31T12:33:20;10.70;99.90
3628;DHT22;1830;49.000;12.074;2023-10-31T12:35:49;10.70;99.90
3628;DHT22;1830;49.000;12.074;2023-10-31T12:38:16;10.70;99.90
3628;DHT22;1830;49.000;12.074;2023-10-31T12:40:43;10.80;99.90
3628;DHT22;1830;49.000;12.074;2023-10-31T12:43:10;10.80;99.90
3628;DHT22;1830;49.000;12.074;2023-10-31T12:45:37;10.90;99.90
3628;DHT22;1830;49.000;12.074;2023-10-31T12:48:05;10.90;99.90
3628;DHT22;1830;49.000;12.074;2023-10-31T12:50:33;11.00;99.90
3628;DHT22;1830;49.000;12.074;2023-10-31T12:53:04;11.00;99.90
3628;DHT22;1830;49.000;12.074;2023-10-31T12:55:37;11.10;99.90
3628;DHT22;1830;49.000;12.074;2023-10-31T12:58:05;11.10;99.90
3628;DHT22;1830;49.000;12.074;2023-10-31T13:00:33;11.10;99.90
3628;DHT22;1830;49.000;12.074;2023-10-31T13:03:01;11.10;99.90
3628;DHT22;1830;49.000;12.074;2023-10-31T13:05:28;11.10;99.90
3628;DHT22;1830;49.000;12.074;2023-10-31T13:07:56;11.20;99.90
3628;DHT22;1830;49.000;12.074;2023-10-31T13:10:25;11.10;99.90
3628;DHT22;1830;49.000;12.074;2023-10-31T13:12:52;11.10;99.90
3628;DHT22;1830;49.000;12.074;2023-10-31T13:15:21;11.10;99.90
3628;DHT22;1830;49.000;12.074;2023-10-31T13:17:48;11.10;99.90
3628;DHT22;1830;49.000;12.074;2023-10-31T13:20:16;11.10;99.90
3628;DHT22;1830;49.000;12.074;2023-10-31T13:22:43;11.10;99.90
3628;DHT22;1830;49.000;12.074;2023-10-31T13:25:11;11.10;99.90
3628;DHT22;1830;49.000;12.074;2023-10-31T13:27:41;11.10;99.90
3628;DHT22;1830;49.000;12.074;2023-10-31T13:30:09;11.10;99.90
3628;DHT22;1830;49.000;12.074;2023-10-31T13:32:37;11.10;99.90
3628;DHT22;1830;49.000;12.074;2023-10-31T13:35:04;11.10;99.90
3628;DHT22;1830;49.000;12.074;2023-10-31T13:37:31;11.10;99.90
3628;DHT22;1830;49.000;12.074;2023-10-31T13:40:00;11.20;99.90
3628;DHT22;1830;49.000;12.074;2023-10-31T13:42:27;11.20;99.90
3628;DHT22;1830;49.000;12.074;2023-10-31T13:44:55;11.20;99.90
3628;DHT22;1830;49.000;12.074;2023-10-31T13:47:22;11.20;99.90
3628;DHT22;1830;49.000;12.074;2023-10-31T13:49:49;11.30;99.90
3628;DHT22;1830;49.000;12.074;2023-10-31T13:52:15;11.30;99.90
3628;DHT22;1830;49.000;12.074;2023-10-31T13:54:43;11.40;99.90
3628;DHT22;1830;49.000;12.074;2023-10-31T13:57:10;11.50;99.90
3628;DHT22;1830;49.000;12.074;2023-10-31T13:59:36;11.50;99.90
3628;DHT22;1830;49.000;12.074;2023-10-31T14:02:05;11.50;99.90
3628;DHT22;1830;49.000;12.074;2023-10-31T14:04:32;11.50;99.90
3628;DHT22;1830;49.000;12.074;2023-10-31T14:06:59;11.50;99.90
3628;DHT22;1830;49.000;12.074;2023-10-31T14:09:26;11.50;99.90
3628;DHT22;1830;49.000;12.074;2023-10-31T14:11:52;11.50;99.90
3628;DHT22;1830;49.000;12.074;2023-10-31T14:14:19;11.50;99.90
3628;DHT22;1830;49.000;12.074;2023-10-31T14:16:47;11.50;99.90
3628;DHT22;1830;49.000;12.074;2023-10-31T14:19:15;11.50;99.90
3628;DHT22;1830;49.000;12.074;2023-10-31T14:21:43;11.50;99.90
3628;DHT22;1830;49.000;12.074;2023-10-31T14:24:10;11.50;99.90
3628;DHT22;1830;49.000;12.074;2023-10-31T14:26:37;11.50;99.90
3628;DHT22;1830;49.000;12.074;2023-10-31T14:29:05;11.50;99.90
3628;DHT22;1830;49.000;12.074;2023-10-31T14:31:38;11.50;99.90
3628;DHT22;1830;49.000;12.074;2023-10-31T14:34:04;11.50;99.90
3628;DHT22;1830;49.000;12.074;2023-10-31T14:36:33;11.50;99.90
3628;DHT22;1830;49.000;12.074;2023-10-31T14:38:59;11.50;99.90
3628;DHT22;1830;49.000;12.074;2023-10-31T14:41:26;11.50;99.90
3628;DHT22;1830;49.000;12.074;2023-10-31T14:43:53;11.50;99.90
3628;DHT22;1830;49.000;12.074;2023-10-31T14:46:20;11.40;99.90
3628;DHT22;1830;49.000;12.074;2023-10-31T14:48:46;11.50;99.90
3628;DHT22;1830;49.000;12.074;2023-10-31T14:51:13;11.50;99.90
3628;DHT22;1830;49.000;12.074;2023-10-31T14:53:41;11.50;99.90
3628;DHT22;1830;49.000;12.074;2023-10-31T14:56:08;11.50;99.90
3628;DHT22;1830;49.000;12.074;2023-10-31T14:58:35;11.50;99.90
3628;DHT22;1830;49.000;12.074;2023-10-31T15:01:02;11.50;99.90
3628;DHT22;1830;49.000;12.074;2023-10-31T15:03:29;11.40;99.90
3628;DHT22;1830;49.000;12.074;2023-10-31T15:05:57;11.40;99.90
3628;DHT22;1830;49.000;12.074;2023-10-31T15:08:24;11.50;99.90
3628;DHT22;1830;49.000;12.074;2023-10-31T15:10:52;11.50;99.90
3628;DHT22;1830;49.000;12.074;2023-10-31T15:13:20;11.40;99.90
3628;DHT22;1830;49.000;12.074;2023-10-31T15:15:48;11.40;99.90
3628;DHT22;1830;49.000;12.074;2023-10-31T15:18:14;11.40;99.90
3628;DHT22;1830;49.000;12.074;2023-10-31T15:20:41;11.30;99.90
3628;DHT22;1830;49.000;12.074;2023-10-31T15:23:09;11.40;99.90
3628;DHT22;1830;49.000;12.074;2023-10-31T15:25:35;11.40;99.90
3628;DHT22;1830;49.000;12.074;2023-10-31T15:28:04;11.30;99.90
3628;DHT22;1830;49.000;12.074;2023-10-31T15:30:30;11.30;99.90
3628;DHT22;1830;49.000;12.074;2023-10-31T15:32:57;11.30;99.90
3628;DHT22;1830;49.000;12.074;2023-10-31T15:35:24;11.30;99.90
3628;DHT22;1830;49.000;12.074;2023-10-31T15:37:51;11.40;99.90
3628;DHT22;1830;49.000;12.074;2023-10-31T15:40:18;11.30;99.90
3628;DHT22;1830;49.000;12.074;2023-10-31T15:42:45;11.30;99.90
3628;DHT22;1830;49.000;12.074;2023-10-31T15:45:13;11.30;99.90
3628;DHT22;1830;49.000;12.074;2023-10-31T15:47:39;11.20;99.90